<?xml version="1.0" encoding="UTF-8"?>
<gpx xmlns="http://www.topografix.com/GPX/1/1" xmlns:xsi="http://www.w3.org/2001/XMLSchema-instance" version="1.1" xsi:schemaLocation="http://www.topografix.com/GPX/1/1 http://www.topografix.com/GPX/1/1/gpx.xsd">
  <metadata>
    <name>Blue Series Triathlon Holambra December 2025</name>
  </metadata>
  <trk>
    <name>Blue Series Triathlon Holambra December 2025</name>
    <trkseg>
      <trkpt lat="-22.638423" lon="-47.049628">
        <ele>594.987319</ele>
        <time>2025-12-06T13:30:00.000Z</time>
      </trkpt>
      <trkpt lat="-22.638455" lon="-47.049707">
        <ele>594.987308</ele>
        <time>2025-12-06T13:30:01.000Z</time>
      </trkpt>
      <trkpt lat="-22.638499" lon="-47.049715">
        <ele>594.987321</ele>
        <time>2025-12-06T13:30:01.000Z</time>
      </trkpt>
      <trkpt lat="-22.638561" lon="-47.049714">
        <ele>594.987308</ele>
        <time>2025-12-06T13:30:02.000Z</time>
      </trkpt>
      <trkpt lat="-22.638605" lon="-47.049684">
        <ele>594.98732</ele>
        <time>2025-12-06T13:30:03.000Z</time>
      </trkpt>
      <trkpt lat="-22.638688" lon="-47.049625">
        <ele>594.987316</ele>
        <time>2025-12-06T13:30:04.000Z</time>
      </trkpt>
      <trkpt lat="-22.638798" lon="-47.049483">
        <ele>594.987308</ele>
        <time>2025-12-06T13:30:06.000Z</time>
      </trkpt>
      <trkpt lat="-22.638906" lon="-47.049235">
        <ele>594.987309</ele>
        <time>2025-12-06T13:30:09.000Z</time>
      </trkpt>
      <trkpt lat="-22.638918" lon="-47.049177">
        <ele>594.987312</ele>
        <time>2025-12-06T13:30:10.000Z</time>
      </trkpt>
      <trkpt lat="-22.63892" lon="-47.049091">
        <ele>594.987311</ele>
        <time>2025-12-06T13:30:11.000Z</time>
      </trkpt>
      <trkpt lat="-22.638921" lon="-47.048736">
        <ele>594.7984</ele>
        <time>2025-12-06T13:30:15.000Z</time>
      </trkpt>
      <trkpt lat="-22.638917" lon="-47.048513">
        <ele>594.668584</ele>
        <time>2025-12-06T13:30:17.000Z</time>
      </trkpt>
      <trkpt lat="-22.63924" lon="-47.047754">
        <ele>594.198318</ele>
        <time>2025-12-06T13:30:26.000Z</time>
      </trkpt>
      <trkpt lat="-22.63953" lon="-47.047087">
        <ele>593.914788</ele>
        <time>2025-12-06T13:30:34.000Z</time>
      </trkpt>
      <trkpt lat="-22.639901" lon="-47.046345">
        <ele>594.04934</ele>
        <time>2025-12-06T13:30:43.000Z</time>
      </trkpt>
      <trkpt lat="-22.640046" lon="-47.046127">
        <ele>594.092701</ele>
        <time>2025-12-06T13:30:46.000Z</time>
      </trkpt>
      <trkpt lat="-22.640252" lon="-47.04593">
        <ele>594.141036</ele>
        <time>2025-12-06T13:30:49.000Z</time>
      </trkpt>
      <trkpt lat="-22.640477" lon="-47.045693">
        <ele>594.195129</ele>
        <time>2025-12-06T13:30:52.000Z</time>
      </trkpt>
      <trkpt lat="-22.641228" lon="-47.044986">
        <ele>595.084179</ele>
        <time>2025-12-06T13:31:03.000Z</time>
      </trkpt>
      <trkpt lat="-22.641281" lon="-47.045">
        <ele>595.121631</ele>
        <time>2025-12-06T13:31:04.000Z</time>
      </trkpt>
      <trkpt lat="-22.641327" lon="-47.045002">
        <ele>595.169501</ele>
        <time>2025-12-06T13:31:05.000Z</time>
      </trkpt>
      <trkpt lat="-22.641359" lon="-47.04499">
        <ele>595.196691</ele>
        <time>2025-12-06T13:31:05.000Z</time>
      </trkpt>
      <trkpt lat="-22.641396" lon="-47.044969">
        <ele>595.241542</ele>
        <time>2025-12-06T13:31:05.000Z</time>
      </trkpt>
      <trkpt lat="-22.64144" lon="-47.044719">
        <ele>595.442592</ele>
        <time>2025-12-06T13:31:08.000Z</time>
      </trkpt>
      <trkpt lat="-22.64141" lon="-47.044679">
        <ele>595.492839</ele>
        <time>2025-12-06T13:31:09.000Z</time>
      </trkpt>
      <trkpt lat="-22.641313" lon="-47.044653">
        <ele>595.578169</ele>
        <time>2025-12-06T13:31:10.000Z</time>
      </trkpt>
      <trkpt lat="-22.641248" lon="-47.044703">
        <ele>595.64459</ele>
        <time>2025-12-06T13:31:11.000Z</time>
      </trkpt>
      <trkpt lat="-22.641228" lon="-47.044557">
        <ele>595.759217</ele>
        <time>2025-12-06T13:31:13.000Z</time>
      </trkpt>
      <trkpt lat="-22.641012" lon="-47.044027">
        <ele>596.406384</ele>
        <time>2025-12-06T13:31:19.000Z</time>
      </trkpt>
      <trkpt lat="-22.640455" lon="-47.042925">
        <ele>597.849926</ele>
        <time>2025-12-06T13:31:32.000Z</time>
      </trkpt>
      <trkpt lat="-22.63872" lon="-47.039189">
        <ele>605.788475</ele>
        <time>2025-12-06T13:32:15.000Z</time>
      </trkpt>
      <trkpt lat="-22.63815" lon="-47.038531">
        <ele>606.274145</ele>
        <time>2025-12-06T13:32:24.000Z</time>
      </trkpt>
      <trkpt lat="-22.637226" lon="-47.037096">
        <ele>606.790598</ele>
        <time>2025-12-06T13:32:42.000Z</time>
      </trkpt>
      <trkpt lat="-22.636824" lon="-47.03644">
        <ele>606.78965</ele>
        <time>2025-12-06T13:32:50.000Z</time>
      </trkpt>
      <trkpt lat="-22.635785" lon="-47.034138">
        <ele>607.724426</ele>
        <time>2025-12-06T13:33:16.000Z</time>
      </trkpt>
      <trkpt lat="-22.635693" lon="-47.033864">
        <ele>607.909625</ele>
        <time>2025-12-06T13:33:19.000Z</time>
      </trkpt>
      <trkpt lat="-22.635599" lon="-47.033433">
        <ele>608.197075</ele>
        <time>2025-12-06T13:33:24.000Z</time>
      </trkpt>
      <trkpt lat="-22.635546" lon="-47.032734">
        <ele>608.642853</ele>
        <time>2025-12-06T13:33:31.000Z</time>
      </trkpt>
      <trkpt lat="-22.635251" lon="-47.031841">
        <ele>608.41009</ele>
        <time>2025-12-06T13:33:41.000Z</time>
      </trkpt>
      <trkpt lat="-22.635092" lon="-47.031471">
        <ele>608.165029</ele>
        <time>2025-12-06T13:33:45.000Z</time>
      </trkpt>
      <trkpt lat="-22.634676" lon="-47.030751">
        <ele>607.665557</ele>
        <time>2025-12-06T13:33:54.000Z</time>
      </trkpt>
      <trkpt lat="-22.63428" lon="-47.030084">
        <ele>606.744624</ele>
        <time>2025-12-06T13:34:02.000Z</time>
      </trkpt>
      <trkpt lat="-22.633482" lon="-47.028975">
        <ele>605.538004</ele>
        <time>2025-12-06T13:34:16.000Z</time>
      </trkpt>
      <trkpt lat="-22.633314" lon="-47.028749">
        <ele>605.656607</ele>
        <time>2025-12-06T13:34:19.000Z</time>
      </trkpt>
      <trkpt lat="-22.633315" lon="-47.028732">
        <ele>605.657043</ele>
        <time>2025-12-06T13:34:19.000Z</time>
      </trkpt>
      <trkpt lat="-22.633321" lon="-47.028742">
        <ele>605.657507</ele>
        <time>2025-12-06T13:34:19.000Z</time>
      </trkpt>
      <trkpt lat="-22.633326" lon="-47.028732">
        <ele>605.657915</ele>
        <time>2025-12-06T13:34:19.000Z</time>
      </trkpt>
      <trkpt lat="-22.633329" lon="-47.028739">
        <ele>605.65854</ele>
        <time>2025-12-06T13:34:19.000Z</time>
      </trkpt>
      <trkpt lat="-22.633313" lon="-47.028743">
        <ele>605.659177</ele>
        <time>2025-12-06T13:34:19.000Z</time>
      </trkpt>
      <trkpt lat="-22.633324" lon="-47.028745">
        <ele>605.659591</ele>
        <time>2025-12-06T13:34:19.000Z</time>
      </trkpt>
      <trkpt lat="-22.633324" lon="-47.028741">
        <ele>605.660049</ele>
        <time>2025-12-06T13:34:19.000Z</time>
      </trkpt>
      <trkpt lat="-22.633327" lon="-47.028734">
        <ele>605.660478</ele>
        <time>2025-12-06T13:34:19.000Z</time>
      </trkpt>
      <trkpt lat="-22.633473" lon="-47.028973">
        <ele>605.779099</ele>
        <time>2025-12-06T13:34:22.000Z</time>
      </trkpt>
      <trkpt lat="-22.634274" lon="-47.030077">
        <ele>606.601221</ele>
        <time>2025-12-06T13:34:36.000Z</time>
      </trkpt>
      <trkpt lat="-22.63468" lon="-47.03075">
        <ele>607.544145</ele>
        <time>2025-12-06T13:34:44.000Z</time>
      </trkpt>
      <trkpt lat="-22.6351" lon="-47.031466">
        <ele>608.546085</ele>
        <time>2025-12-06T13:34:53.000Z</time>
      </trkpt>
      <trkpt lat="-22.635255" lon="-47.031844">
        <ele>608.506576</ele>
        <time>2025-12-06T13:34:57.000Z</time>
      </trkpt>
      <trkpt lat="-22.635558" lon="-47.032747">
        <ele>608.400922</ele>
        <time>2025-12-06T13:35:07.000Z</time>
      </trkpt>
      <trkpt lat="-22.635594" lon="-47.033427">
        <ele>608.270979</ele>
        <time>2025-12-06T13:35:14.000Z</time>
      </trkpt>
      <trkpt lat="-22.635706" lon="-47.033876">
        <ele>608.002781</ele>
        <time>2025-12-06T13:35:19.000Z</time>
      </trkpt>
      <trkpt lat="-22.635793" lon="-47.034142">
        <ele>607.82998</ele>
        <time>2025-12-06T13:35:22.000Z</time>
      </trkpt>
      <trkpt lat="-22.636827" lon="-47.036436">
        <ele>606.813043</ele>
        <time>2025-12-06T13:35:48.000Z</time>
      </trkpt>
      <trkpt lat="-22.637222" lon="-47.037092">
        <ele>606.695079</ele>
        <time>2025-12-06T13:35:56.000Z</time>
      </trkpt>
      <trkpt lat="-22.63815" lon="-47.03853">
        <ele>606.580685</ele>
        <time>2025-12-06T13:36:14.000Z</time>
      </trkpt>
      <trkpt lat="-22.638721" lon="-47.039192">
        <ele>605.434874</ele>
        <time>2025-12-06T13:36:23.000Z</time>
      </trkpt>
      <trkpt lat="-22.640457" lon="-47.042911">
        <ele>597.9918</ele>
        <time>2025-12-06T13:37:06.000Z</time>
      </trkpt>
      <trkpt lat="-22.641021" lon="-47.044035">
        <ele>596.38827</ele>
        <time>2025-12-06T13:37:19.000Z</time>
      </trkpt>
      <trkpt lat="-22.641227" lon="-47.044557">
        <ele>595.935931</ele>
        <time>2025-12-06T13:37:25.000Z</time>
      </trkpt>
      <trkpt lat="-22.641245" lon="-47.044708">
        <ele>595.829796</ele>
        <time>2025-12-06T13:37:27.000Z</time>
      </trkpt>
      <trkpt lat="-22.641211" lon="-47.044847">
        <ele>595.71533</ele>
        <time>2025-12-06T13:37:28.000Z</time>
      </trkpt>
      <trkpt lat="-22.639963" lon="-47.04605">
        <ele>594.511563</ele>
        <time>2025-12-06T13:37:47.000Z</time>
      </trkpt>
      <trkpt lat="-22.639827" lon="-47.046291">
        <ele>594.335268</ele>
        <time>2025-12-06T13:37:50.000Z</time>
      </trkpt>
      <trkpt lat="-22.639262" lon="-47.047426">
        <ele>593.902216</ele>
        <time>2025-12-06T13:38:03.000Z</time>
      </trkpt>
      <trkpt lat="-22.638768" lon="-47.048589">
        <ele>593.841465</ele>
        <time>2025-12-06T13:38:16.000Z</time>
      </trkpt>
      <trkpt lat="-22.638762" lon="-47.048606">
        <ele>593.842079</ele>
        <time>2025-12-06T13:38:16.000Z</time>
      </trkpt>
      <trkpt lat="-22.638727" lon="-47.048703">
        <ele>593.914455</ele>
        <time>2025-12-06T13:38:17.000Z</time>
      </trkpt>
      <trkpt lat="-22.638708" lon="-47.04874">
        <ele>593.931598</ele>
        <time>2025-12-06T13:38:17.000Z</time>
      </trkpt>
      <trkpt lat="-22.638586" lon="-47.04905">
        <ele>594.144169</ele>
        <time>2025-12-06T13:38:20.000Z</time>
      </trkpt>
      <trkpt lat="-22.638415" lon="-47.049629">
        <ele>594.515298</ele>
        <time>2025-12-06T13:38:26.000Z</time>
      </trkpt>
      <trkpt lat="-22.63846" lon="-47.049703">
        <ele>594.561093</ele>
        <time>2025-12-06T13:38:27.000Z</time>
      </trkpt>
      <trkpt lat="-22.638503" lon="-47.049725">
        <ele>594.600602</ele>
        <time>2025-12-06T13:38:28.000Z</time>
      </trkpt>
      <trkpt lat="-22.638554" lon="-47.049703">
        <ele>594.63231</ele>
        <time>2025-12-06T13:38:29.000Z</time>
      </trkpt>
      <trkpt lat="-22.638593" lon="-47.049674">
        <ele>594.666835</ele>
        <time>2025-12-06T13:38:30.000Z</time>
      </trkpt>
      <trkpt lat="-22.638687" lon="-47.049613">
        <ele>594.733499</ele>
        <time>2025-12-06T13:38:31.000Z</time>
      </trkpt>
      <trkpt lat="-22.638802" lon="-47.049482">
        <ele>594.843065</ele>
        <time>2025-12-06T13:38:33.000Z</time>
      </trkpt>
      <trkpt lat="-22.638908" lon="-47.049252">
        <ele>594.742881</ele>
        <time>2025-12-06T13:38:36.000Z</time>
      </trkpt>
      <trkpt lat="-22.638913" lon="-47.049178">
        <ele>594.709338</ele>
        <time>2025-12-06T13:38:37.000Z</time>
      </trkpt>
      <trkpt lat="-22.63891" lon="-47.049097">
        <ele>594.677574</ele>
        <time>2025-12-06T13:38:38.000Z</time>
      </trkpt>
      <trkpt lat="-22.638911" lon="-47.048745">
        <ele>594.516673</ele>
        <time>2025-12-06T13:38:42.000Z</time>
      </trkpt>
      <trkpt lat="-22.638926" lon="-47.048513">
        <ele>594.413634</ele>
        <time>2025-12-06T13:38:44.000Z</time>
      </trkpt>
      <trkpt lat="-22.639229" lon="-47.047757">
        <ele>594.040428</ele>
        <time>2025-12-06T13:38:52.000Z</time>
      </trkpt>
      <trkpt lat="-22.639547" lon="-47.047089">
        <ele>593.992378</ele>
        <time>2025-12-06T13:39:00.000Z</time>
      </trkpt>
      <trkpt lat="-22.639895" lon="-47.04634">
        <ele>594.011508</ele>
        <time>2025-12-06T13:39:09.000Z</time>
      </trkpt>
      <trkpt lat="-22.640038" lon="-47.046125">
        <ele>594.017675</ele>
        <time>2025-12-06T13:39:12.000Z</time>
      </trkpt>
      <trkpt lat="-22.640251" lon="-47.045917">
        <ele>594.069249</ele>
        <time>2025-12-06T13:39:15.000Z</time>
      </trkpt>
      <trkpt lat="-22.640483" lon="-47.045707">
        <ele>594.310082</ele>
        <time>2025-12-06T13:39:18.000Z</time>
      </trkpt>
      <trkpt lat="-22.641239" lon="-47.04499">
        <ele>595.086789</ele>
        <time>2025-12-06T13:39:29.000Z</time>
      </trkpt>
      <trkpt lat="-22.641278" lon="-47.044989">
        <ele>595.119068</ele>
        <time>2025-12-06T13:39:29.000Z</time>
      </trkpt>
      <trkpt lat="-22.641326" lon="-47.044996">
        <ele>595.160356</ele>
        <time>2025-12-06T13:39:30.000Z</time>
      </trkpt>
      <trkpt lat="-22.641354" lon="-47.044992">
        <ele>595.183777</ele>
        <time>2025-12-06T13:39:30.000Z</time>
      </trkpt>
      <trkpt lat="-22.641393" lon="-47.044966">
        <ele>595.222452</ele>
        <time>2025-12-06T13:39:31.000Z</time>
      </trkpt>
      <trkpt lat="-22.641442" lon="-47.044721">
        <ele>595.395792</ele>
        <time>2025-12-06T13:39:34.000Z</time>
      </trkpt>
      <trkpt lat="-22.64141" lon="-47.04469">
        <ele>595.44647</ele>
        <time>2025-12-06T13:39:34.000Z</time>
      </trkpt>
      <trkpt lat="-22.641313" lon="-47.044665">
        <ele>595.551604</ele>
        <time>2025-12-06T13:39:35.000Z</time>
      </trkpt>
      <trkpt lat="-22.641249" lon="-47.044701">
        <ele>595.633422</ele>
        <time>2025-12-06T13:39:36.000Z</time>
      </trkpt>
      <trkpt lat="-22.64123" lon="-47.044566">
        <ele>595.774672</ele>
        <time>2025-12-06T13:39:37.000Z</time>
      </trkpt>
      <trkpt lat="-22.641008" lon="-47.044025">
        <ele>596.376599</ele>
        <time>2025-12-06T13:39:43.000Z</time>
      </trkpt>
      <trkpt lat="-22.640449" lon="-47.042923">
        <ele>597.879616</ele>
        <time>2025-12-06T13:39:56.000Z</time>
      </trkpt>
      <trkpt lat="-22.638722" lon="-47.039197">
        <ele>605.513177</ele>
        <time>2025-12-06T13:40:39.000Z</time>
      </trkpt>
      <trkpt lat="-22.638161" lon="-47.038541">
        <ele>606.314904</ele>
        <time>2025-12-06T13:40:48.000Z</time>
      </trkpt>
      <trkpt lat="-22.637232" lon="-47.037102">
        <ele>606.746466</ele>
        <time>2025-12-06T13:41:06.000Z</time>
      </trkpt>
      <trkpt lat="-22.636817" lon="-47.036445">
        <ele>606.738803</ele>
        <time>2025-12-06T13:41:14.000Z</time>
      </trkpt>
      <trkpt lat="-22.635786" lon="-47.03414">
        <ele>607.785833</ele>
        <time>2025-12-06T13:41:40.000Z</time>
      </trkpt>
      <trkpt lat="-22.635703" lon="-47.033871">
        <ele>607.975165</ele>
        <time>2025-12-06T13:41:43.000Z</time>
      </trkpt>
      <trkpt lat="-22.635592" lon="-47.033427">
        <ele>608.269016</ele>
        <time>2025-12-06T13:41:48.000Z</time>
      </trkpt>
      <trkpt lat="-22.635553" lon="-47.032739">
        <ele>608.587401</ele>
        <time>2025-12-06T13:41:55.000Z</time>
      </trkpt>
      <trkpt lat="-22.635262" lon="-47.031843">
        <ele>608.368735</ele>
        <time>2025-12-06T13:42:05.000Z</time>
      </trkpt>
      <trkpt lat="-22.635106" lon="-47.031465">
        <ele>608.272203</ele>
        <time>2025-12-06T13:42:09.000Z</time>
      </trkpt>
      <trkpt lat="-22.634665" lon="-47.030754">
        <ele>607.659292</ele>
        <time>2025-12-06T13:42:18.000Z</time>
      </trkpt>
      <trkpt lat="-22.634267" lon="-47.030088">
        <ele>606.687031</ele>
        <time>2025-12-06T13:42:26.000Z</time>
      </trkpt>
      <trkpt lat="-22.633476" lon="-47.028964">
        <ele>605.809357</ele>
        <time>2025-12-06T13:42:41.000Z</time>
      </trkpt>
      <trkpt lat="-22.633327" lon="-47.02875">
        <ele>605.812335</ele>
        <time>2025-12-06T13:42:44.000Z</time>
      </trkpt>
      <trkpt lat="-22.633315" lon="-47.028737">
        <ele>605.81234</ele>
        <time>2025-12-06T13:42:44.000Z</time>
      </trkpt>
      <trkpt lat="-22.633332" lon="-47.028732">
        <ele>605.812349</ele>
        <time>2025-12-06T13:42:44.000Z</time>
      </trkpt>
      <trkpt lat="-22.633468" lon="-47.028974">
        <ele>605.815328</ele>
        <time>2025-12-06T13:42:47.000Z</time>
      </trkpt>
      <trkpt lat="-22.63427" lon="-47.03008">
        <ele>606.682713</ele>
        <time>2025-12-06T13:43:01.000Z</time>
      </trkpt>
      <trkpt lat="-22.634666" lon="-47.030758">
        <ele>607.65563</ele>
        <time>2025-12-06T13:43:09.000Z</time>
      </trkpt>
      <trkpt lat="-22.635091" lon="-47.031473">
        <ele>608.282349</ele>
        <time>2025-12-06T13:43:18.000Z</time>
      </trkpt>
      <trkpt lat="-22.63526" lon="-47.031851">
        <ele>608.37137</ele>
        <time>2025-12-06T13:43:22.000Z</time>
      </trkpt>
      <trkpt lat="-22.635549" lon="-47.032743">
        <ele>608.572984</ele>
        <time>2025-12-06T13:43:32.000Z</time>
      </trkpt>
      <trkpt lat="-22.635599" lon="-47.033425">
        <ele>608.271007</ele>
        <time>2025-12-06T13:43:39.000Z</time>
      </trkpt>
      <trkpt lat="-22.635707" lon="-47.033872">
        <ele>607.977983</ele>
        <time>2025-12-06T13:43:44.000Z</time>
      </trkpt>
      <trkpt lat="-22.635794" lon="-47.034143">
        <ele>607.789169</ele>
        <time>2025-12-06T13:43:47.000Z</time>
      </trkpt>
      <trkpt lat="-22.636817" lon="-47.036445">
        <ele>606.74286</ele>
        <time>2025-12-06T13:44:13.000Z</time>
      </trkpt>
      <trkpt lat="-22.637233" lon="-47.037104">
        <ele>606.743398</ele>
        <time>2025-12-06T13:44:21.000Z</time>
      </trkpt>
      <trkpt lat="-22.638154" lon="-47.038529">
        <ele>606.322397</ele>
        <time>2025-12-06T13:44:39.000Z</time>
      </trkpt>
      <trkpt lat="-22.638709" lon="-47.039205">
        <ele>605.504303</ele>
        <time>2025-12-06T13:44:48.000Z</time>
      </trkpt>
      <trkpt lat="-22.64045" lon="-47.042911">
        <ele>597.860971</ele>
        <time>2025-12-06T13:45:31.000Z</time>
      </trkpt>
      <trkpt lat="-22.641014" lon="-47.044031">
        <ele>596.452195</ele>
        <time>2025-12-06T13:45:44.000Z</time>
      </trkpt>
      <trkpt lat="-22.641222" lon="-47.044564">
        <ele>595.917394</ele>
        <time>2025-12-06T13:45:50.000Z</time>
      </trkpt>
      <trkpt lat="-22.641253" lon="-47.044703">
        <ele>595.791889</ele>
        <time>2025-12-06T13:45:51.000Z</time>
      </trkpt>
      <trkpt lat="-22.641217" lon="-47.044835">
        <ele>595.656578</ele>
        <time>2025-12-06T13:45:52.000Z</time>
      </trkpt>
      <trkpt lat="-22.639973" lon="-47.046051">
        <ele>594.539103</ele>
        <time>2025-12-06T13:46:11.000Z</time>
      </trkpt>
      <trkpt lat="-22.639824" lon="-47.046281">
        <ele>594.380425</ele>
        <time>2025-12-06T13:46:14.000Z</time>
      </trkpt>
      <trkpt lat="-22.639263" lon="-47.047414">
        <ele>593.831875</ele>
        <time>2025-12-06T13:46:27.000Z</time>
      </trkpt>
      <trkpt lat="-22.638721" lon="-47.048713">
        <ele>594.06855</ele>
        <time>2025-12-06T13:46:42.000Z</time>
      </trkpt>
      <trkpt lat="-22.638724" lon="-47.048738">
        <ele>594.085605</ele>
        <time>2025-12-06T13:46:42.000Z</time>
      </trkpt>
      <trkpt lat="-22.638596" lon="-47.049052">
        <ele>594.297092</ele>
        <time>2025-12-06T13:46:46.000Z</time>
      </trkpt>
      <trkpt lat="-22.638416" lon="-47.049634">
        <ele>594.666321</ele>
        <time>2025-12-06T13:46:52.000Z</time>
      </trkpt>
      <trkpt lat="-22.638448" lon="-47.049707">
        <ele>594.711886</ele>
        <time>2025-12-06T13:46:53.000Z</time>
      </trkpt>
      <trkpt lat="-22.638502" lon="-47.049723">
        <ele>594.751181</ele>
        <time>2025-12-06T13:46:54.000Z</time>
      </trkpt>
      <trkpt lat="-22.638563" lon="-47.049705">
        <ele>594.740729</ele>
        <time>2025-12-06T13:46:55.000Z</time>
      </trkpt>
      <trkpt lat="-22.638608" lon="-47.049687">
        <ele>594.722857</ele>
        <time>2025-12-06T13:46:56.000Z</time>
      </trkpt>
      <trkpt lat="-22.63868" lon="-47.049623">
        <ele>594.688318</ele>
        <time>2025-12-06T13:46:57.000Z</time>
      </trkpt>
      <trkpt lat="-22.6388" lon="-47.049486">
        <ele>594.631581</ele>
        <time>2025-12-06T13:46:59.000Z</time>
      </trkpt>
      <trkpt lat="-22.638904" lon="-47.04924">
        <ele>594.547748</ele>
        <time>2025-12-06T13:47:02.000Z</time>
      </trkpt>
      <trkpt lat="-22.638917" lon="-47.049175">
        <ele>594.52422</ele>
        <time>2025-12-06T13:47:03.000Z</time>
      </trkpt>
      <trkpt lat="-22.638919" lon="-47.049093">
        <ele>594.501937</ele>
        <time>2025-12-06T13:47:04.000Z</time>
      </trkpt>
      <trkpt lat="-22.638913" lon="-47.04875">
        <ele>594.389114</ele>
        <time>2025-12-06T13:47:08.000Z</time>
      </trkpt>
      <trkpt lat="-22.63893" lon="-47.048505">
        <ele>594.316861</ele>
        <time>2025-12-06T13:47:11.000Z</time>
      </trkpt>
      <trkpt lat="-22.639235" lon="-47.047761">
        <ele>594.112315</ele>
        <time>2025-12-06T13:47:19.000Z</time>
      </trkpt>
      <trkpt lat="-22.639544" lon="-47.047085">
        <ele>594.033689</ele>
        <time>2025-12-06T13:47:27.000Z</time>
      </trkpt>
      <trkpt lat="-22.639901" lon="-47.046345">
        <ele>593.946024</ele>
        <time>2025-12-06T13:47:36.000Z</time>
      </trkpt>
      <trkpt lat="-22.640032" lon="-47.046128">
        <ele>594.035684</ele>
        <time>2025-12-06T13:47:39.000Z</time>
      </trkpt>
      <trkpt lat="-22.640247" lon="-47.045922">
        <ele>594.206236</ele>
        <time>2025-12-06T13:47:42.000Z</time>
      </trkpt>
      <trkpt lat="-22.640475" lon="-47.045692">
        <ele>594.397166</ele>
        <time>2025-12-06T13:47:45.000Z</time>
      </trkpt>
      <trkpt lat="-22.641228" lon="-47.044992">
        <ele>595.012965</ele>
        <time>2025-12-06T13:47:56.000Z</time>
      </trkpt>
      <trkpt lat="-22.641269" lon="-47.045005">
        <ele>595.038558</ele>
        <time>2025-12-06T13:47:56.000Z</time>
      </trkpt>
      <trkpt lat="-22.641324" lon="-47.044992">
        <ele>595.089032</ele>
        <time>2025-12-06T13:47:57.000Z</time>
      </trkpt>
      <trkpt lat="-22.641363" lon="-47.045006">
        <ele>595.120263</ele>
        <time>2025-12-06T13:47:57.000Z</time>
      </trkpt>
      <trkpt lat="-22.641391" lon="-47.044969">
        <ele>595.171831</ele>
        <time>2025-12-06T13:47:57.000Z</time>
      </trkpt>
      <trkpt lat="-22.641442" lon="-47.044719">
        <ele>595.40286</ele>
        <time>2025-12-06T13:48:00.000Z</time>
      </trkpt>
      <trkpt lat="-22.641412" lon="-47.044677">
        <ele>595.460616</ele>
        <time>2025-12-06T13:48:01.000Z</time>
      </trkpt>
      <trkpt lat="-22.641319" lon="-47.044666">
        <ele>595.55868</ele>
        <time>2025-12-06T13:48:02.000Z</time>
      </trkpt>
      <trkpt lat="-22.641257" lon="-47.0447">
        <ele>595.635006</ele>
        <time>2025-12-06T13:48:03.000Z</time>
      </trkpt>
      <trkpt lat="-22.641225" lon="-47.044567">
        <ele>595.76675</ele>
        <time>2025-12-06T13:48:04.000Z</time>
      </trkpt>
      <trkpt lat="-22.641011" lon="-47.044035">
        <ele>596.328164</ele>
        <time>2025-12-06T13:48:10.000Z</time>
      </trkpt>
      <trkpt lat="-22.640465" lon="-47.042922">
        <ele>598.016659</ele>
        <time>2025-12-06T13:48:23.000Z</time>
      </trkpt>
      <trkpt lat="-22.638708" lon="-47.039197">
        <ele>605.433432</ele>
        <time>2025-12-06T13:49:06.000Z</time>
      </trkpt>
      <trkpt lat="-22.638155" lon="-47.038543">
        <ele>606.562021</ele>
        <time>2025-12-06T13:49:15.000Z</time>
      </trkpt>
      <trkpt lat="-22.637221" lon="-47.037096">
        <ele>606.696402</ele>
        <time>2025-12-06T13:49:33.000Z</time>
      </trkpt>
      <trkpt lat="-22.636812" lon="-47.036445">
        <ele>606.810023</ele>
        <time>2025-12-06T13:49:41.000Z</time>
      </trkpt>
      <trkpt lat="-22.635796" lon="-47.034143">
        <ele>607.82937</ele>
        <time>2025-12-06T13:50:07.000Z</time>
      </trkpt>
      <trkpt lat="-22.635698" lon="-47.033867">
        <ele>608.003168</ele>
        <time>2025-12-06T13:50:10.000Z</time>
      </trkpt>
      <trkpt lat="-22.635598" lon="-47.033427">
        <ele>608.272924</ele>
        <time>2025-12-06T13:50:15.000Z</time>
      </trkpt>
      <trkpt lat="-22.635552" lon="-47.032736">
        <ele>608.404987</ele>
        <time>2025-12-06T13:50:22.000Z</time>
      </trkpt>
      <trkpt lat="-22.635263" lon="-47.031842">
        <ele>608.496187</ele>
        <time>2025-12-06T13:50:32.000Z</time>
      </trkpt>
      <trkpt lat="-22.635099" lon="-47.031469">
        <ele>608.536438</ele>
        <time>2025-12-06T13:50:36.000Z</time>
      </trkpt>
      <trkpt lat="-22.634678" lon="-47.030754">
        <ele>607.549323</ele>
        <time>2025-12-06T13:50:45.000Z</time>
      </trkpt>
      <trkpt lat="-22.634281" lon="-47.030085">
        <ele>606.60153</ele>
        <time>2025-12-06T13:50:53.000Z</time>
      </trkpt>
      <trkpt lat="-22.633485" lon="-47.028973">
        <ele>605.782513</ele>
        <time>2025-12-06T13:51:07.000Z</time>
      </trkpt>
      <trkpt lat="-22.633327" lon="-47.028732">
        <ele>605.669265</ele>
        <time>2025-12-06T13:51:10.000Z</time>
      </trkpt>
      <trkpt lat="-22.633315" lon="-47.028746">
        <ele>605.668877</ele>
        <time>2025-12-06T13:51:10.000Z</time>
      </trkpt>
      <trkpt lat="-22.633325" lon="-47.028733">
        <ele>605.668424</ele>
        <time>2025-12-06T13:51:10.000Z</time>
      </trkpt>
      <trkpt lat="-22.633319" lon="-47.028737">
        <ele>605.66803</ele>
        <time>2025-12-06T13:51:10.000Z</time>
      </trkpt>
      <trkpt lat="-22.63332" lon="-47.028735">
        <ele>605.667434</ele>
        <time>2025-12-06T13:51:10.000Z</time>
      </trkpt>
      <trkpt lat="-22.633324" lon="-47.028733">
        <ele>605.666835</ele>
        <time>2025-12-06T13:51:10.000Z</time>
      </trkpt>
      <trkpt lat="-22.633319" lon="-47.028747">
        <ele>605.666241</ele>
        <time>2025-12-06T13:51:10.000Z</time>
      </trkpt>
      <trkpt lat="-22.633324" lon="-47.028734">
        <ele>605.665631</ele>
        <time>2025-12-06T13:51:10.000Z</time>
      </trkpt>
      <trkpt lat="-22.633317" lon="-47.028749">
        <ele>605.66523</ele>
        <time>2025-12-06T13:51:10.000Z</time>
      </trkpt>
      <trkpt lat="-22.633322" lon="-47.028741">
        <ele>605.664798</ele>
        <time>2025-12-06T13:51:10.000Z</time>
      </trkpt>
      <trkpt lat="-22.633321" lon="-47.028748">
        <ele>605.664384</ele>
        <time>2025-12-06T13:51:10.000Z</time>
      </trkpt>
      <trkpt lat="-22.633469" lon="-47.028961">
        <ele>605.551135</ele>
        <time>2025-12-06T13:51:13.000Z</time>
      </trkpt>
      <trkpt lat="-22.63427" lon="-47.030082">
        <ele>606.741598</ele>
        <time>2025-12-06T13:51:28.000Z</time>
      </trkpt>
      <trkpt lat="-22.634663" lon="-47.030755">
        <ele>607.667506</ele>
        <time>2025-12-06T13:51:36.000Z</time>
      </trkpt>
      <trkpt lat="-22.635094" lon="-47.031474">
        <ele>608.165607</ele>
        <time>2025-12-06T13:51:45.000Z</time>
      </trkpt>
      <trkpt lat="-22.635255" lon="-47.031846">
        <ele>608.404658</ele>
        <time>2025-12-06T13:51:49.000Z</time>
      </trkpt>
      <trkpt lat="-22.635559" lon="-47.03274">
        <ele>608.648837</ele>
        <time>2025-12-06T13:51:59.000Z</time>
      </trkpt>
      <trkpt lat="-22.635602" lon="-47.033434">
        <ele>608.201001</ele>
        <time>2025-12-06T13:52:06.000Z</time>
      </trkpt>
      <trkpt lat="-22.635698" lon="-47.033862">
        <ele>607.912214</ele>
        <time>2025-12-06T13:52:11.000Z</time>
      </trkpt>
      <trkpt lat="-22.635787" lon="-47.034133">
        <ele>607.726158</ele>
        <time>2025-12-06T13:52:14.000Z</time>
      </trkpt>
      <trkpt lat="-22.636815" lon="-47.036435">
        <ele>606.786579</ele>
        <time>2025-12-06T13:52:40.000Z</time>
      </trkpt>
      <trkpt lat="-22.637216" lon="-47.037096">
        <ele>606.789918</ele>
        <time>2025-12-06T13:52:48.000Z</time>
      </trkpt>
      <trkpt lat="-22.638152" lon="-47.038545">
        <ele>606.271802</ele>
        <time>2025-12-06T13:53:06.000Z</time>
      </trkpt>
      <trkpt lat="-22.638713" lon="-47.039195">
        <ele>605.772757</ele>
        <time>2025-12-06T13:53:15.000Z</time>
      </trkpt>
      <trkpt lat="-22.640462" lon="-47.04292">
        <ele>597.834673</ele>
        <time>2025-12-06T13:53:58.000Z</time>
      </trkpt>
      <trkpt lat="-22.641007" lon="-47.044029">
        <ele>596.448712</ele>
        <time>2025-12-06T13:54:11.000Z</time>
      </trkpt>
      <trkpt lat="-22.641222" lon="-47.044568">
        <ele>595.832675</ele>
        <time>2025-12-06T13:54:17.000Z</time>
      </trkpt>
      <trkpt lat="-22.641245" lon="-47.044698">
        <ele>595.749147</ele>
        <time>2025-12-06T13:54:18.000Z</time>
      </trkpt>
      <trkpt lat="-22.641221" lon="-47.044839">
        <ele>595.659096</ele>
        <time>2025-12-06T13:54:19.000Z</time>
      </trkpt>
      <trkpt lat="-22.639975" lon="-47.046052">
        <ele>594.570758</ele>
        <time>2025-12-06T13:54:38.000Z</time>
      </trkpt>
      <trkpt lat="-22.639817" lon="-47.04628">
        <ele>594.413761</ele>
        <time>2025-12-06T13:54:41.000Z</time>
      </trkpt>
      <trkpt lat="-22.639259" lon="-47.047415">
        <ele>593.698911</ele>
        <time>2025-12-06T13:54:54.000Z</time>
      </trkpt>
      <trkpt lat="-22.638726" lon="-47.048697">
        <ele>594.168337</ele>
        <time>2025-12-06T13:55:08.000Z</time>
      </trkpt>
      <trkpt lat="-22.638716" lon="-47.048738">
        <ele>594.18133</ele>
        <time>2025-12-06T13:55:08.000Z</time>
      </trkpt>
      <trkpt lat="-22.638593" lon="-47.049045">
        <ele>594.342455</ele>
        <time>2025-12-06T13:55:11.000Z</time>
      </trkpt>
      <trkpt lat="-22.63841" lon="-47.049626">
        <ele>594.479061</ele>
        <time>2025-12-06T13:55:17.000Z</time>
      </trkpt>
      <trkpt lat="-22.638445" lon="-47.049695">
        <ele>594.473989</ele>
        <time>2025-12-06T13:55:18.000Z</time>
      </trkpt>
      <trkpt lat="-22.638509" lon="-47.049711">
        <ele>594.469605</ele>
        <time>2025-12-06T13:55:19.000Z</time>
      </trkpt>
      <trkpt lat="-22.638561" lon="-47.049709">
        <ele>594.466099</ele>
        <time>2025-12-06T13:55:20.000Z</time>
      </trkpt>
      <trkpt lat="-22.638606" lon="-47.049684">
        <ele>594.46227</ele>
        <time>2025-12-06T13:55:21.000Z</time>
      </trkpt>
      <trkpt lat="-22.638686" lon="-47.049624">
        <ele>594.454889</ele>
        <time>2025-12-06T13:55:22.000Z</time>
      </trkpt>
      <trkpt lat="-22.638806" lon="-47.049477">
        <ele>594.442732</ele>
        <time>2025-12-06T13:55:24.000Z</time>
      </trkpt>
      <trkpt lat="-22.638902" lon="-47.049253">
        <ele>594.424786</ele>
        <time>2025-12-06T13:55:27.000Z</time>
      </trkpt>
      <trkpt lat="-22.638914" lon="-47.049174">
        <ele>594.419763</ele>
        <time>2025-12-06T13:55:28.000Z</time>
      </trkpt>
      <trkpt lat="-22.638921" lon="-47.049095">
        <ele>594.414994</ele>
        <time>2025-12-06T13:55:29.000Z</time>
      </trkpt>
      <trkpt lat="-22.638923" lon="-47.048742">
        <ele>594.390847</ele>
        <time>2025-12-06T13:55:33.000Z</time>
      </trkpt>
      <trkpt lat="-22.638923" lon="-47.048508">
        <ele>594.375377</ele>
        <time>2025-12-06T13:55:35.000Z</time>
      </trkpt>
      <trkpt lat="-22.639231" lon="-47.047757">
        <ele>594.197726</ele>
        <time>2025-12-06T13:55:43.000Z</time>
      </trkpt>
      <trkpt lat="-22.639544" lon="-47.04708">
        <ele>594.015811</ele>
        <time>2025-12-06T13:55:51.000Z</time>
      </trkpt>
      <trkpt lat="-22.639901" lon="-47.046333">
        <ele>594.023561</ele>
        <time>2025-12-06T13:56:00.000Z</time>
      </trkpt>
      <trkpt lat="-22.640035" lon="-47.046122">
        <ele>594.131696</ele>
        <time>2025-12-06T13:56:03.000Z</time>
      </trkpt>
      <trkpt lat="-22.640256" lon="-47.045926">
        <ele>594.252219</ele>
        <time>2025-12-06T13:56:06.000Z</time>
      </trkpt>
      <trkpt lat="-22.640477" lon="-47.045705">
        <ele>594.387128</ele>
        <time>2025-12-06T13:56:09.000Z</time>
      </trkpt>
      <trkpt lat="-22.641229" lon="-47.044984">
        <ele>595.015317</ele>
        <time>2025-12-06T13:56:20.000Z</time>
      </trkpt>
      <trkpt lat="-22.641276" lon="-47.044998">
        <ele>595.057275</ele>
        <time>2025-12-06T13:56:21.000Z</time>
      </trkpt>
      <trkpt lat="-22.641316" lon="-47.045009">
        <ele>595.110925</ele>
        <time>2025-12-06T13:56:21.000Z</time>
      </trkpt>
      <trkpt lat="-22.641359" lon="-47.044995">
        <ele>595.141384</ele>
        <time>2025-12-06T13:56:21.000Z</time>
      </trkpt>
      <trkpt lat="-22.641401" lon="-47.044968">
        <ele>595.191657</ele>
        <time>2025-12-06T13:56:22.000Z</time>
      </trkpt>
      <trkpt lat="-22.641456" lon="-47.044719">
        <ele>595.416927</ele>
        <time>2025-12-06T13:56:25.000Z</time>
      </trkpt>
      <trkpt lat="-22.641399" lon="-47.044679">
        <ele>595.473239</ele>
        <time>2025-12-06T13:56:26.000Z</time>
      </trkpt>
      <trkpt lat="-22.641314" lon="-47.044662">
        <ele>595.568878</ele>
        <time>2025-12-06T13:56:27.000Z</time>
      </trkpt>
      <trkpt lat="-22.641262" lon="-47.044703">
        <ele>595.643284</ele>
        <time>2025-12-06T13:56:28.000Z</time>
      </trkpt>
      <trkpt lat="-22.641238" lon="-47.04457">
        <ele>595.771746</ele>
        <time>2025-12-06T13:56:29.000Z</time>
      </trkpt>
      <trkpt lat="-22.641006" lon="-47.044035">
        <ele>596.319176</ele>
        <time>2025-12-06T13:56:35.000Z</time>
      </trkpt>
      <trkpt lat="-22.640458" lon="-47.042918">
        <ele>598.056705</ele>
        <time>2025-12-06T13:56:48.000Z</time>
      </trkpt>
      <trkpt lat="-22.638721" lon="-47.039204">
        <ele>605.553122</ele>
        <time>2025-12-06T13:57:31.000Z</time>
      </trkpt>
      <trkpt lat="-22.638161" lon="-47.038531">
        <ele>606.545256</ele>
        <time>2025-12-06T13:57:40.000Z</time>
      </trkpt>
      <trkpt lat="-22.637225" lon="-47.037087">
        <ele>606.727115</ele>
        <time>2025-12-06T13:57:58.000Z</time>
      </trkpt>
      <trkpt lat="-22.636823" lon="-47.03645">
        <ele>606.848959</ele>
        <time>2025-12-06T13:58:06.000Z</time>
      </trkpt>
      <trkpt lat="-22.635787" lon="-47.034139">
        <ele>607.804493</ele>
        <time>2025-12-06T13:58:32.000Z</time>
      </trkpt>
      <trkpt lat="-22.635707" lon="-47.033873">
        <ele>607.956474</ele>
        <time>2025-12-06T13:58:35.000Z</time>
      </trkpt>
      <trkpt lat="-22.635604" lon="-47.03344">
        <ele>608.147661</ele>
        <time>2025-12-06T13:58:40.000Z</time>
      </trkpt>
      <trkpt lat="-22.635547" lon="-47.032743">
        <ele>608.406945</ele>
        <time>2025-12-06T13:58:47.000Z</time>
      </trkpt>
      <trkpt lat="-22.635254" lon="-47.031849">
        <ele>608.761481</ele>
        <time>2025-12-06T13:58:57.000Z</time>
      </trkpt>
      <trkpt lat="-22.635104" lon="-47.031458">
        <ele>608.354312</ele>
        <time>2025-12-06T13:59:01.000Z</time>
      </trkpt>
      <trkpt lat="-22.634676" lon="-47.030747">
        <ele>607.489272</ele>
        <time>2025-12-06T13:59:10.000Z</time>
      </trkpt>
      <trkpt lat="-22.634263" lon="-47.03008">
        <ele>606.704352</ele>
        <time>2025-12-06T13:59:18.000Z</time>
      </trkpt>
      <trkpt lat="-22.633485" lon="-47.028962">
        <ele>605.664456</ele>
        <time>2025-12-06T13:59:32.000Z</time>
      </trkpt>
      <trkpt lat="-22.633329" lon="-47.028738">
        <ele>605.458412</ele>
        <time>2025-12-06T13:59:35.000Z</time>
      </trkpt>
      <trkpt lat="-22.633481" lon="-47.02896">
        <ele>605.46054</ele>
        <time>2025-12-06T13:59:38.000Z</time>
      </trkpt>
      <trkpt lat="-22.634266" lon="-47.030073">
        <ele>606.785474</ele>
        <time>2025-12-06T13:59:52.000Z</time>
      </trkpt>
      <trkpt lat="-22.634675" lon="-47.030752">
        <ele>607.504398</ele>
        <time>2025-12-06T14:00:00.000Z</time>
      </trkpt>
      <trkpt lat="-22.635096" lon="-47.031473">
        <ele>608.2323</ele>
        <time>2025-12-06T14:00:09.000Z</time>
      </trkpt>
      <trkpt lat="-22.635253" lon="-47.031839">
        <ele>608.591695</ele>
        <time>2025-12-06T14:00:13.000Z</time>
      </trkpt>
      <trkpt lat="-22.635549" lon="-47.032751">
        <ele>608.499487</ele>
        <time>2025-12-06T14:00:23.000Z</time>
      </trkpt>
      <trkpt lat="-22.635597" lon="-47.033437">
        <ele>608.131208</ele>
        <time>2025-12-06T14:00:30.000Z</time>
      </trkpt>
      <trkpt lat="-22.635702" lon="-47.033869">
        <ele>607.893738</ele>
        <time>2025-12-06T14:00:35.000Z</time>
      </trkpt>
      <trkpt lat="-22.635786" lon="-47.034145">
        <ele>607.748965</ele>
        <time>2025-12-06T14:00:38.000Z</time>
      </trkpt>
      <trkpt lat="-22.636821" lon="-47.036437">
        <ele>606.839944</ele>
        <time>2025-12-06T14:01:04.000Z</time>
      </trkpt>
      <trkpt lat="-22.637234" lon="-47.037088">
        <ele>606.778846</ele>
        <time>2025-12-06T14:01:12.000Z</time>
      </trkpt>
      <trkpt lat="-22.63816" lon="-47.038547">
        <ele>606.395532</ele>
        <time>2025-12-06T14:01:30.000Z</time>
      </trkpt>
      <trkpt lat="-22.638705" lon="-47.039195">
        <ele>605.719014</ele>
        <time>2025-12-06T14:01:39.000Z</time>
      </trkpt>
      <trkpt lat="-22.640464" lon="-47.042914">
        <ele>597.986736</ele>
        <time>2025-12-06T14:02:22.000Z</time>
      </trkpt>
      <trkpt lat="-22.641011" lon="-47.044029">
        <ele>596.341134</ele>
        <time>2025-12-06T14:02:35.000Z</time>
      </trkpt>
      <trkpt lat="-22.641237" lon="-47.044573">
        <ele>595.883934</ele>
        <time>2025-12-06T14:02:41.000Z</time>
      </trkpt>
      <trkpt lat="-22.641255" lon="-47.044703">
        <ele>595.795717</ele>
        <time>2025-12-06T14:02:42.000Z</time>
      </trkpt>
      <trkpt lat="-22.641214" lon="-47.044839">
        <ele>595.700592</ele>
        <time>2025-12-06T14:02:43.000Z</time>
      </trkpt>
      <trkpt lat="-22.639968" lon="-47.046044">
        <ele>594.551604</ele>
        <time>2025-12-06T14:03:02.000Z</time>
      </trkpt>
      <trkpt lat="-22.639822" lon="-47.046283">
        <ele>594.376164</ele>
        <time>2025-12-06T14:03:05.000Z</time>
      </trkpt>
      <trkpt lat="-22.639263" lon="-47.04742">
        <ele>593.776265</ele>
        <time>2025-12-06T14:03:18.000Z</time>
      </trkpt>
      <trkpt lat="-22.638717" lon="-47.048703">
        <ele>594.128508</ele>
        <time>2025-12-06T14:03:32.000Z</time>
      </trkpt>
      <trkpt lat="-22.638719" lon="-47.048736">
        <ele>594.135523</ele>
        <time>2025-12-06T14:03:32.000Z</time>
      </trkpt>
      <trkpt lat="-22.638592" lon="-47.049051">
        <ele>594.220133</ele>
        <time>2025-12-06T14:03:36.000Z</time>
      </trkpt>
      <trkpt lat="-22.63842" lon="-47.049634">
        <ele>594.352126</ele>
        <time>2025-12-06T14:03:42.000Z</time>
      </trkpt>
      <trkpt lat="-22.638442" lon="-47.049705">
        <ele>594.368405</ele>
        <time>2025-12-06T14:03:43.000Z</time>
      </trkpt>
      <trkpt lat="-22.638499" lon="-47.049712">
        <ele>594.382463</ele>
        <time>2025-12-06T14:03:44.000Z</time>
      </trkpt>
      <trkpt lat="-22.638564" lon="-47.049711">
        <ele>594.393741</ele>
        <time>2025-12-06T14:03:45.000Z</time>
      </trkpt>
      <trkpt lat="-22.638597" lon="-47.049674">
        <ele>594.406008</ele>
        <time>2025-12-06T14:03:46.000Z</time>
      </trkpt>
      <trkpt lat="-22.638683" lon="-47.04962">
        <ele>594.429722</ele>
        <time>2025-12-06T14:03:47.000Z</time>
      </trkpt>
      <trkpt lat="-22.638801" lon="-47.049481">
        <ele>594.468684</ele>
        <time>2025-12-06T14:03:49.000Z</time>
      </trkpt>
      <trkpt lat="-22.638907" lon="-47.04925">
        <ele>594.526263</ele>
        <time>2025-12-06T14:03:52.000Z</time>
      </trkpt>
      <trkpt lat="-22.638914" lon="-47.049178">
        <ele>594.542413</ele>
        <time>2025-12-06T14:03:53.000Z</time>
      </trkpt>
      <trkpt lat="-22.638922" lon="-47.049105">
        <ele>594.557708</ele>
        <time>2025-12-06T14:03:54.000Z</time>
      </trkpt>
      <trkpt lat="-22.638917" lon="-47.048733">
        <ele>594.610122</ele>
        <time>2025-12-06T14:03:58.000Z</time>
      </trkpt>
      <trkpt lat="-22.638921" lon="-47.048514">
        <ele>594.519903</ele>
        <time>2025-12-06T14:04:00.000Z</time>
      </trkpt>
      <trkpt lat="-22.639229" lon="-47.047761">
        <ele>594.19315</ele>
        <time>2025-12-06T14:04:08.000Z</time>
      </trkpt>
      <trkpt lat="-22.639537" lon="-47.047073">
        <ele>593.898718</ele>
        <time>2025-12-06T14:04:16.000Z</time>
      </trkpt>
      <trkpt lat="-22.639892" lon="-47.046342">
        <ele>594.05195</ele>
        <time>2025-12-06T14:04:24.000Z</time>
      </trkpt>
      <trkpt lat="-22.640043" lon="-47.046131">
        <ele>594.122397</ele>
        <time>2025-12-06T14:04:27.000Z</time>
      </trkpt>
      <trkpt lat="-22.640239" lon="-47.045917">
        <ele>594.200924</ele>
        <time>2025-12-06T14:04:30.000Z</time>
      </trkpt>
      <trkpt lat="-22.640468" lon="-47.045699">
        <ele>594.288832</ele>
        <time>2025-12-06T14:04:33.000Z</time>
      </trkpt>
      <trkpt lat="-22.641239" lon="-47.044995">
        <ele>595.05927</ele>
        <time>2025-12-06T14:04:44.000Z</time>
      </trkpt>
      <trkpt lat="-22.641275" lon="-47.045004">
        <ele>595.099415</ele>
        <time>2025-12-06T14:04:44.000Z</time>
      </trkpt>
      <trkpt lat="-22.641333" lon="-47.044996">
        <ele>595.150752</ele>
        <time>2025-12-06T14:04:45.000Z</time>
      </trkpt>
      <trkpt lat="-22.641363" lon="-47.044989">
        <ele>595.179897</ele>
        <time>2025-12-06T14:04:45.000Z</time>
      </trkpt>
      <trkpt lat="-22.641385" lon="-47.04496">
        <ele>595.228012</ele>
        <time>2025-12-06T14:04:45.000Z</time>
      </trkpt>
      <trkpt lat="-22.641446" lon="-47.044727">
        <ele>595.443588</ele>
        <time>2025-12-06T14:04:47.000Z</time>
      </trkpt>
      <trkpt lat="-22.641408" lon="-47.044684">
        <ele>595.497459</ele>
        <time>2025-12-06T14:04:48.000Z</time>
      </trkpt>
      <trkpt lat="-22.641325" lon="-47.044666">
        <ele>595.588975</ele>
        <time>2025-12-06T14:04:49.000Z</time>
      </trkpt>
      <trkpt lat="-22.641263" lon="-47.0447">
        <ele>595.660185</ele>
        <time>2025-12-06T14:04:50.000Z</time>
      </trkpt>
      <trkpt lat="-22.641233" lon="-47.04456">
        <ele>595.783118</ele>
        <time>2025-12-06T14:04:51.000Z</time>
      </trkpt>
      <trkpt lat="-22.64102" lon="-47.044022">
        <ele>596.385502</ele>
        <time>2025-12-06T14:04:57.000Z</time>
      </trkpt>
      <trkpt lat="-22.640454" lon="-47.042909">
        <ele>597.964378</ele>
        <time>2025-12-06T14:05:10.000Z</time>
      </trkpt>
      <trkpt lat="-22.638716" lon="-47.039196">
        <ele>605.775179</ele>
        <time>2025-12-06T14:05:53.000Z</time>
      </trkpt>
      <trkpt lat="-22.63815" lon="-47.038546">
        <ele>606.354859</ele>
        <time>2025-12-06T14:06:02.000Z</time>
      </trkpt>
      <trkpt lat="-22.637226" lon="-47.037097">
        <ele>606.786633</ele>
        <time>2025-12-06T14:06:20.000Z</time>
      </trkpt>
      <trkpt lat="-22.636822" lon="-47.036446">
        <ele>606.830614</ele>
        <time>2025-12-06T14:06:28.000Z</time>
      </trkpt>
      <trkpt lat="-22.635793" lon="-47.03414">
        <ele>607.728933</ele>
        <time>2025-12-06T14:06:54.000Z</time>
      </trkpt>
      <trkpt lat="-22.635695" lon="-47.033868">
        <ele>607.888299</ele>
        <time>2025-12-06T14:06:57.000Z</time>
      </trkpt>
      <trkpt lat="-22.635603" lon="-47.033434">
        <ele>608.14223</ele>
        <time>2025-12-06T14:07:02.000Z</time>
      </trkpt>
      <trkpt lat="-22.635549" lon="-47.032749">
        <ele>608.536016</ele>
        <time>2025-12-06T14:07:09.000Z</time>
      </trkpt>
      <trkpt lat="-22.635265" lon="-47.031857">
        <ele>608.536428</ele>
        <time>2025-12-06T14:07:19.000Z</time>
      </trkpt>
      <trkpt lat="-22.635095" lon="-47.031467">
        <ele>608.201874</ele>
        <time>2025-12-06T14:07:23.000Z</time>
      </trkpt>
      <trkpt lat="-22.634671" lon="-47.030761">
        <ele>607.524264</ele>
        <time>2025-12-06T14:07:32.000Z</time>
      </trkpt>
      <trkpt lat="-22.63427" lon="-47.030075">
        <ele>606.770344</ele>
        <time>2025-12-06T14:07:40.000Z</time>
      </trkpt>
      <trkpt lat="-22.633482" lon="-47.028966">
        <ele>605.324161</ele>
        <time>2025-12-06T14:07:54.000Z</time>
      </trkpt>
      <trkpt lat="-22.633317" lon="-47.028738">
        <ele>605.470322</ele>
        <time>2025-12-06T14:07:57.000Z</time>
      </trkpt>
      <trkpt lat="-22.633325" lon="-47.028748">
        <ele>605.471002</ele>
        <time>2025-12-06T14:07:57.000Z</time>
      </trkpt>
      <trkpt lat="-22.633325" lon="-47.028737">
        <ele>605.47175</ele>
        <time>2025-12-06T14:07:57.000Z</time>
      </trkpt>
      <trkpt lat="-22.633327" lon="-47.028738">
        <ele>605.472431</ele>
        <time>2025-12-06T14:07:57.000Z</time>
      </trkpt>
      <trkpt lat="-22.633321" lon="-47.028743">
        <ele>605.473122</ele>
        <time>2025-12-06T14:07:57.000Z</time>
      </trkpt>
      <trkpt lat="-22.633328" lon="-47.028747">
        <ele>605.47386</ele>
        <time>2025-12-06T14:07:57.000Z</time>
      </trkpt>
      <trkpt lat="-22.633314" lon="-47.028744">
        <ele>605.474549</ele>
        <time>2025-12-06T14:07:57.000Z</time>
      </trkpt>
      <trkpt lat="-22.633472" lon="-47.028974">
        <ele>605.666088</ele>
        <time>2025-12-06T14:08:00.000Z</time>
      </trkpt>
      <trkpt lat="-22.634275" lon="-47.030091">
        <ele>606.63282</ele>
        <time>2025-12-06T14:08:15.000Z</time>
      </trkpt>
      <trkpt lat="-22.634675" lon="-47.030746">
        <ele>607.48882</ele>
        <time>2025-12-06T14:08:23.000Z</time>
      </trkpt>
      <trkpt lat="-22.635106" lon="-47.031473">
        <ele>608.398362</ele>
        <time>2025-12-06T14:08:32.000Z</time>
      </trkpt>
      <trkpt lat="-22.635248" lon="-47.031849">
        <ele>608.684332</ele>
        <time>2025-12-06T14:08:36.000Z</time>
      </trkpt>
      <trkpt lat="-22.635548" lon="-47.032736">
        <ele>608.390861</ele>
        <time>2025-12-06T14:08:46.000Z</time>
      </trkpt>
      <trkpt lat="-22.635604" lon="-47.033437">
        <ele>608.176236</ele>
        <time>2025-12-06T14:08:53.000Z</time>
      </trkpt>
      <trkpt lat="-22.635707" lon="-47.033862">
        <ele>607.975988</ele>
        <time>2025-12-06T14:08:58.000Z</time>
      </trkpt>
      <trkpt lat="-22.6358" lon="-47.034142">
        <ele>607.818265</ele>
        <time>2025-12-06T14:09:01.000Z</time>
      </trkpt>
      <trkpt lat="-22.636825" lon="-47.03644">
        <ele>606.844147</ele>
        <time>2025-12-06T14:09:27.000Z</time>
      </trkpt>
      <trkpt lat="-22.637222" lon="-47.037101">
        <ele>606.702325</ele>
        <time>2025-12-06T14:09:35.000Z</time>
      </trkpt>
      <trkpt lat="-22.638148" lon="-47.038547">
        <ele>606.596057</ele>
        <time>2025-12-06T14:09:53.000Z</time>
      </trkpt>
      <trkpt lat="-22.638721" lon="-47.039207">
        <ele>605.313308</ele>
        <time>2025-12-06T14:10:02.000Z</time>
      </trkpt>
      <trkpt lat="-22.640454" lon="-47.042921">
        <ele>598.036068</ele>
        <time>2025-12-06T14:10:45.000Z</time>
      </trkpt>
      <trkpt lat="-22.641022" lon="-47.044023">
        <ele>596.335676</ele>
        <time>2025-12-06T14:10:58.000Z</time>
      </trkpt>
      <trkpt lat="-22.641228" lon="-47.044566">
        <ele>595.922246</ele>
        <time>2025-12-06T14:11:04.000Z</time>
      </trkpt>
      <trkpt lat="-22.641253" lon="-47.044709">
        <ele>595.825232</ele>
        <time>2025-12-06T14:11:05.000Z</time>
      </trkpt>
      <trkpt lat="-22.641215" lon="-47.044836">
        <ele>595.720627</ele>
        <time>2025-12-06T14:11:06.000Z</time>
      </trkpt>
      <trkpt lat="-22.639963" lon="-47.046055">
        <ele>594.514234</ele>
        <time>2025-12-06T14:11:25.000Z</time>
      </trkpt>
      <trkpt lat="-22.639816" lon="-47.046282">
        <ele>594.334712</ele>
        <time>2025-12-06T14:11:28.000Z</time>
      </trkpt>
      <trkpt lat="-22.63926" lon="-47.047418">
        <ele>593.921153</ele>
        <time>2025-12-06T14:11:41.000Z</time>
      </trkpt>
      <trkpt lat="-22.638723" lon="-47.048696">
        <ele>593.960432</ele>
        <time>2025-12-06T14:11:55.000Z</time>
      </trkpt>
      <trkpt lat="-22.638714" lon="-47.048736">
        <ele>593.973489</ele>
        <time>2025-12-06T14:11:55.000Z</time>
      </trkpt>
      <trkpt lat="-22.638596" lon="-47.049057">
        <ele>594.135376</ele>
        <time>2025-12-06T14:11:59.000Z</time>
      </trkpt>
      <trkpt lat="-22.638421" lon="-47.049633">
        <ele>594.418028</ele>
        <time>2025-12-06T14:12:05.000Z</time>
      </trkpt>
      <trkpt lat="-22.638457" lon="-47.049692">
        <ele>594.452895</ele>
        <time>2025-12-06T14:12:06.000Z</time>
      </trkpt>
      <trkpt lat="-22.63851" lon="-47.049721">
        <ele>594.482985</ele>
        <time>2025-12-06T14:12:07.000Z</time>
      </trkpt>
      <trkpt lat="-22.63856" lon="-47.049698">
        <ele>594.507124</ele>
        <time>2025-12-06T14:12:08.000Z</time>
      </trkpt>
      <trkpt lat="-22.638604" lon="-47.049679">
        <ele>594.533407</ele>
        <time>2025-12-06T14:12:09.000Z</time>
      </trkpt>
      <trkpt lat="-22.638676" lon="-47.049613">
        <ele>594.584193</ele>
        <time>2025-12-06T14:12:10.000Z</time>
      </trkpt>
      <trkpt lat="-22.638794" lon="-47.049481">
        <ele>594.667626</ele>
        <time>2025-12-06T14:12:12.000Z</time>
      </trkpt>
      <trkpt lat="-22.638892" lon="-47.049241">
        <ele>594.790933</ele>
        <time>2025-12-06T14:12:15.000Z</time>
      </trkpt>
      <trkpt lat="-22.638912" lon="-47.049167">
        <ele>594.800565</ele>
        <time>2025-12-06T14:12:16.000Z</time>
      </trkpt>
      <trkpt lat="-22.63892" lon="-47.049108">
        <ele>594.76761</ele>
        <time>2025-12-06T14:12:17.000Z</time>
      </trkpt>
      <trkpt lat="-22.638908" lon="-47.048745">
        <ele>594.600734</ele>
        <time>2025-12-06T14:12:21.000Z</time>
      </trkpt>
      <trkpt lat="-22.638932" lon="-47.048513">
        <ele>594.493863</ele>
        <time>2025-12-06T14:12:23.000Z</time>
      </trkpt>
      <trkpt lat="-22.639245" lon="-47.047763">
        <ele>594.106778</ele>
        <time>2025-12-06T14:12:31.000Z</time>
      </trkpt>
      <trkpt lat="-22.639544" lon="-47.047081">
        <ele>593.942309</ele>
        <time>2025-12-06T14:12:39.000Z</time>
      </trkpt>
      <trkpt lat="-22.639892" lon="-47.046337">
        <ele>594.042152</ele>
        <time>2025-12-06T14:12:48.000Z</time>
      </trkpt>
      <trkpt lat="-22.640045" lon="-47.046124">
        <ele>594.074314</ele>
        <time>2025-12-06T14:12:51.000Z</time>
      </trkpt>
      <trkpt lat="-22.640238" lon="-47.045916">
        <ele>594.110177</ele>
        <time>2025-12-06T14:12:54.000Z</time>
      </trkpt>
      <trkpt lat="-22.640479" lon="-47.045702">
        <ele>594.221567</ele>
        <time>2025-12-06T14:12:57.000Z</time>
      </trkpt>
      <trkpt lat="-22.641234" lon="-47.044988">
        <ele>595.09014</ele>
        <time>2025-12-06T14:13:08.000Z</time>
      </trkpt>
      <trkpt lat="-22.641273" lon="-47.045002">
        <ele>595.126239</ele>
        <time>2025-12-06T14:13:08.000Z</time>
      </trkpt>
      <trkpt lat="-22.641316" lon="-47.045006">
        <ele>595.172383</ele>
        <time>2025-12-06T14:13:08.000Z</time>
      </trkpt>
      <trkpt lat="-22.641352" lon="-47.044991">
        <ele>595.198589</ele>
        <time>2025-12-06T14:13:08.000Z</time>
      </trkpt>
      <trkpt lat="-22.641393" lon="-47.044969">
        <ele>595.241841</ele>
        <time>2025-12-06T14:13:09.000Z</time>
      </trkpt>
      <trkpt lat="-22.641446" lon="-47.044725">
        <ele>595.435681</ele>
        <time>2025-12-06T14:13:12.000Z</time>
      </trkpt>
      <trkpt lat="-22.641413" lon="-47.044689">
        <ele>595.484128</ele>
        <time>2025-12-06T14:13:13.000Z</time>
      </trkpt>
      <trkpt lat="-22.64131" lon="-47.044666">
        <ele>595.566398</ele>
        <time>2025-12-06T14:13:14.000Z</time>
      </trkpt>
      <trkpt lat="-22.641259" lon="-47.044708">
        <ele>595.630422</ele>
        <time>2025-12-06T14:13:15.000Z</time>
      </trkpt>
      <trkpt lat="-22.64123" lon="-47.044564">
        <ele>595.755473</ele>
        <time>2025-12-06T14:13:17.000Z</time>
      </trkpt>
      <trkpt lat="-22.641021" lon="-47.044033">
        <ele>596.402946</ele>
        <time>2025-12-06T14:13:23.000Z</time>
      </trkpt>
      <trkpt lat="-22.640456" lon="-47.042911">
        <ele>597.798128</ele>
        <time>2025-12-06T14:13:36.000Z</time>
      </trkpt>
      <trkpt lat="-22.638721" lon="-47.03919">
        <ele>605.689162</ele>
        <time>2025-12-06T14:14:19.000Z</time>
      </trkpt>
      <trkpt lat="-22.638165" lon="-47.038537">
        <ele>606.265456</ele>
        <time>2025-12-06T14:14:28.000Z</time>
      </trkpt>
      <trkpt lat="-22.637221" lon="-47.037087">
        <ele>606.783113</ele>
        <time>2025-12-06T14:14:46.000Z</time>
      </trkpt>
      <trkpt lat="-22.636815" lon="-47.036444">
        <ele>606.768056</ele>
        <time>2025-12-06T14:14:54.000Z</time>
      </trkpt>
      <trkpt lat="-22.635787" lon="-47.034132">
        <ele>607.738817</ele>
        <time>2025-12-06T14:15:20.000Z</time>
      </trkpt>
      <trkpt lat="-22.635697" lon="-47.033876">
        <ele>607.928558</ele>
        <time>2025-12-06T14:15:23.000Z</time>
      </trkpt>
      <trkpt lat="-22.635606" lon="-47.033442">
        <ele>608.223074</ele>
        <time>2025-12-06T14:15:28.000Z</time>
      </trkpt>
      <trkpt lat="-22.635554" lon="-47.032741">
        <ele>608.679818</ele>
        <time>2025-12-06T14:15:35.000Z</time>
      </trkpt>
      <trkpt lat="-22.635248" lon="-47.03185">
        <ele>608.379589</ele>
        <time>2025-12-06T14:15:45.000Z</time>
      </trkpt>
      <trkpt lat="-22.635099" lon="-47.031468">
        <ele>608.17596</ele>
        <time>2025-12-06T14:15:49.000Z</time>
      </trkpt>
      <trkpt lat="-22.634675" lon="-47.03076">
        <ele>607.677218</ele>
        <time>2025-12-06T14:15:58.000Z</time>
      </trkpt>
      <trkpt lat="-22.634265" lon="-47.030084">
        <ele>606.747973</ele>
        <time>2025-12-06T14:16:06.000Z</time>
      </trkpt>
      <trkpt lat="-22.633472" lon="-47.028966">
        <ele>605.675551</ele>
        <time>2025-12-06T14:16:20.000Z</time>
      </trkpt>
      <trkpt lat="-22.633319" lon="-47.028749">
        <ele>605.759897</ele>
        <time>2025-12-06T14:16:23.000Z</time>
      </trkpt>
      <trkpt lat="-22.633475" lon="-47.028957">
        <ele>605.844252</ele>
        <time>2025-12-06T14:16:26.000Z</time>
      </trkpt>
      <trkpt lat="-22.634268" lon="-47.030081">
        <ele>606.633592</ele>
        <time>2025-12-06T14:16:41.000Z</time>
      </trkpt>
      <trkpt lat="-22.634667" lon="-47.030748">
        <ele>607.585751</ele>
        <time>2025-12-06T14:16:49.000Z</time>
      </trkpt>
      <trkpt lat="-22.635105" lon="-47.031463">
        <ele>608.466573</ele>
        <time>2025-12-06T14:16:58.000Z</time>
      </trkpt>
      <trkpt lat="-22.635255" lon="-47.031851">
        <ele>608.454918</ele>
        <time>2025-12-06T14:17:02.000Z</time>
      </trkpt>
      <trkpt lat="-22.635542" lon="-47.032741">
        <ele>608.428494</ele>
        <time>2025-12-06T14:17:12.000Z</time>
      </trkpt>
      <trkpt lat="-22.6356" lon="-47.033437">
        <ele>608.279007</ele>
        <time>2025-12-06T14:17:19.000Z</time>
      </trkpt>
      <trkpt lat="-22.635694" lon="-47.033865">
        <ele>608.002635</ele>
        <time>2025-12-06T14:17:24.000Z</time>
      </trkpt>
      <trkpt lat="-22.635783" lon="-47.03413">
        <ele>607.824587</ele>
        <time>2025-12-06T14:17:27.000Z</time>
      </trkpt>
      <trkpt lat="-22.636823" lon="-47.036436">
        <ele>606.795916</ele>
        <time>2025-12-06T14:17:53.000Z</time>
      </trkpt>
      <trkpt lat="-22.637225" lon="-47.037089">
        <ele>606.704203</ele>
        <time>2025-12-06T14:18:01.000Z</time>
      </trkpt>
      <trkpt lat="-22.638165" lon="-47.038533">
        <ele>606.487793</ele>
        <time>2025-12-06T14:18:19.000Z</time>
      </trkpt>
      <trkpt lat="-22.638721" lon="-47.039194">
        <ele>605.4337</ele>
        <time>2025-12-06T14:18:28.000Z</time>
      </trkpt>
      <trkpt lat="-22.640456" lon="-47.042912">
        <ele>597.961338</ele>
        <time>2025-12-06T14:19:11.000Z</time>
      </trkpt>
      <trkpt lat="-22.641016" lon="-47.044029">
        <ele>596.409201</ele>
        <time>2025-12-06T14:19:24.000Z</time>
      </trkpt>
      <trkpt lat="-22.641223" lon="-47.044574">
        <ele>595.937482</ele>
        <time>2025-12-06T14:19:30.000Z</time>
      </trkpt>
      <trkpt lat="-22.641249" lon="-47.044707">
        <ele>595.826799</ele>
        <time>2025-12-06T14:19:31.000Z</time>
      </trkpt>
      <trkpt lat="-22.641217" lon="-47.044843">
        <ele>595.707428</ele>
        <time>2025-12-06T14:19:32.000Z</time>
      </trkpt>
      <trkpt lat="-22.639973" lon="-47.04605">
        <ele>594.518347</ele>
        <time>2025-12-06T14:19:51.000Z</time>
      </trkpt>
      <trkpt lat="-22.639829" lon="-47.046291">
        <ele>594.344144</ele>
        <time>2025-12-06T14:19:54.000Z</time>
      </trkpt>
      <trkpt lat="-22.639275" lon="-47.047422">
        <ele>593.914447</ele>
        <time>2025-12-06T14:20:07.000Z</time>
      </trkpt>
      <trkpt lat="-22.63872" lon="-47.048706">
        <ele>593.98208</ele>
        <time>2025-12-06T14:20:22.000Z</time>
      </trkpt>
      <trkpt lat="-22.638721" lon="-47.048737">
        <ele>593.999076</ele>
        <time>2025-12-06T14:20:22.000Z</time>
      </trkpt>
      <trkpt lat="-22.638583" lon="-47.049049">
        <ele>594.209803</ele>
        <time>2025-12-06T14:20:26.000Z</time>
      </trkpt>
      <trkpt lat="-22.63842" lon="-47.049629">
        <ele>594.577717</ele>
        <time>2025-12-06T14:20:32.000Z</time>
      </trkpt>
      <trkpt lat="-22.638444" lon="-47.049704">
        <ele>594.623108</ele>
        <time>2025-12-06T14:20:33.000Z</time>
      </trkpt>
      <trkpt lat="-22.638504" lon="-47.049709">
        <ele>594.662281</ele>
        <time>2025-12-06T14:20:34.000Z</time>
      </trkpt>
      <trkpt lat="-22.638547" lon="-47.049707">
        <ele>594.693712</ele>
        <time>2025-12-06T14:20:34.000Z</time>
      </trkpt>
      <trkpt lat="-22.638604" lon="-47.049687">
        <ele>594.72793</ele>
        <time>2025-12-06T14:20:35.000Z</time>
      </trkpt>
      <trkpt lat="-22.638693" lon="-47.04961">
        <ele>594.794028</ele>
        <time>2025-12-06T14:20:36.000Z</time>
      </trkpt>
      <trkpt lat="-22.638791" lon="-47.049478">
        <ele>594.805481</ele>
        <time>2025-12-06T14:20:38.000Z</time>
      </trkpt>
      <trkpt lat="-22.638893" lon="-47.04925">
        <ele>594.69225</ele>
        <time>2025-12-06T14:20:41.000Z</time>
      </trkpt>
      <trkpt lat="-22.638917" lon="-47.049171">
        <ele>594.660484</ele>
        <time>2025-12-06T14:20:42.000Z</time>
      </trkpt>
      <trkpt lat="-22.638924" lon="-47.049109">
        <ele>594.63042</ele>
        <time>2025-12-06T14:20:43.000Z</time>
      </trkpt>
      <trkpt lat="-22.638919" lon="-47.048751">
        <ele>594.47804</ele>
        <time>2025-12-06T14:20:47.000Z</time>
      </trkpt>
      <trkpt lat="-22.638933" lon="-47.048512">
        <ele>594.380468</ele>
        <time>2025-12-06T14:20:49.000Z</time>
      </trkpt>
      <trkpt lat="-22.639238" lon="-47.047759">
        <ele>594.02707</ele>
        <time>2025-12-06T14:20:57.000Z</time>
      </trkpt>
      <trkpt lat="-22.639535" lon="-47.04709">
        <ele>594.006849</ele>
        <time>2025-12-06T14:21:05.000Z</time>
      </trkpt>
      <trkpt lat="-22.6399" lon="-47.046339">
        <ele>593.995962</ele>
        <time>2025-12-06T14:21:14.000Z</time>
      </trkpt>
      <trkpt lat="-22.640048" lon="-47.046131">
        <ele>593.992447</ele>
        <time>2025-12-06T14:21:17.000Z</time>
      </trkpt>
      <trkpt lat="-22.640244" lon="-47.045916">
        <ele>594.111404</ele>
        <time>2025-12-06T14:21:20.000Z</time>
      </trkpt>
      <trkpt lat="-22.640475" lon="-47.045695">
        <ele>594.339779</ele>
        <time>2025-12-06T14:21:23.000Z</time>
      </trkpt>
      <trkpt lat="-22.641222" lon="-47.044997">
        <ele>595.07633</ele>
        <time>2025-12-06T14:21:34.000Z</time>
      </trkpt>
      <trkpt lat="-22.641268" lon="-47.044995">
        <ele>595.106944</ele>
        <time>2025-12-06T14:21:35.000Z</time>
      </trkpt>
      <trkpt lat="-22.64132" lon="-47.044999">
        <ele>595.146086</ele>
        <time>2025-12-06T14:21:36.000Z</time>
      </trkpt>
      <trkpt lat="-22.641347" lon="-47.044993">
        <ele>595.168307</ele>
        <time>2025-12-06T14:21:36.000Z</time>
      </trkpt>
      <trkpt lat="-22.641387" lon="-47.044959">
        <ele>595.204983</ele>
        <time>2025-12-06T14:21:37.000Z</time>
      </trkpt>
      <trkpt lat="-22.641456" lon="-47.044726">
        <ele>595.393842</ele>
        <time>2025-12-06T14:21:40.000Z</time>
      </trkpt>
      <trkpt lat="-22.64141" lon="-47.044691">
        <ele>595.454315</ele>
        <time>2025-12-06T14:21:41.000Z</time>
      </trkpt>
      <trkpt lat="-22.641318" lon="-47.04466">
        <ele>595.55701</ele>
        <time>2025-12-06T14:21:42.000Z</time>
      </trkpt>
      <trkpt lat="-22.641252" lon="-47.044697">
        <ele>595.636931</ele>
        <time>2025-12-06T14:21:43.000Z</time>
      </trkpt>
      <trkpt lat="-22.641232" lon="-47.044558">
        <ele>595.774886</ele>
        <time>2025-12-06T14:21:44.000Z</time>
      </trkpt>
      <trkpt lat="-22.641018" lon="-47.044028">
        <ele>596.362791</ele>
        <time>2025-12-06T14:21:50.000Z</time>
      </trkpt>
      <trkpt lat="-22.640463" lon="-47.042918">
        <ele>597.9231</ele>
        <time>2025-12-06T14:22:03.000Z</time>
      </trkpt>
      <trkpt lat="-22.638712" lon="-47.039203">
        <ele>605.471463</ele>
        <time>2025-12-06T14:22:46.000Z</time>
      </trkpt>
      <trkpt lat="-22.638148" lon="-47.038537">
        <ele>606.361413</ele>
        <time>2025-12-06T14:22:55.000Z</time>
      </trkpt>
      <trkpt lat="-22.637233" lon="-47.037095">
        <ele>606.730088</ele>
        <time>2025-12-06T14:23:13.000Z</time>
      </trkpt>
      <trkpt lat="-22.636826" lon="-47.036442">
        <ele>606.760145</ele>
        <time>2025-12-06T14:23:21.000Z</time>
      </trkpt>
      <trkpt lat="-22.635784" lon="-47.034138">
        <ele>607.802739</ele>
        <time>2025-12-06T14:23:47.000Z</time>
      </trkpt>
      <trkpt lat="-22.635702" lon="-47.033862">
        <ele>607.98886</ele>
        <time>2025-12-06T14:23:50.000Z</time>
      </trkpt>
      <trkpt lat="-22.635601" lon="-47.033432">
        <ele>608.277739</ele>
        <time>2025-12-06T14:23:55.000Z</time>
      </trkpt>
      <trkpt lat="-22.635557" lon="-47.032744">
        <ele>608.516781</ele>
        <time>2025-12-06T14:24:02.000Z</time>
      </trkpt>
      <trkpt lat="-22.635252" lon="-47.031851">
        <ele>608.388197</ele>
        <time>2025-12-06T14:24:12.000Z</time>
      </trkpt>
      <trkpt lat="-22.635104" lon="-47.031469">
        <ele>608.331415</ele>
        <time>2025-12-06T14:24:16.000Z</time>
      </trkpt>
      <trkpt lat="-22.634678" lon="-47.030744">
        <ele>607.625174</ele>
        <time>2025-12-06T14:24:25.000Z</time>
      </trkpt>
      <trkpt lat="-22.634279" lon="-47.030077">
        <ele>606.63533</ele>
        <time>2025-12-06T14:24:33.000Z</time>
      </trkpt>
      <trkpt lat="-22.633484" lon="-47.028967">
        <ele>605.791047</ele>
        <time>2025-12-06T14:24:47.000Z</time>
      </trkpt>
      <trkpt lat="-22.633321" lon="-47.028745">
        <ele>605.761867</ele>
        <time>2025-12-06T14:24:50.000Z</time>
      </trkpt>
      <trkpt lat="-22.633329" lon="-47.028731">
        <ele>605.76177</ele>
        <time>2025-12-06T14:24:50.000Z</time>
      </trkpt>
      <trkpt lat="-22.633328" lon="-47.028743">
        <ele>605.761649</ele>
        <time>2025-12-06T14:24:50.000Z</time>
      </trkpt>
      <trkpt lat="-22.633314" lon="-47.028747">
        <ele>605.761544</ele>
        <time>2025-12-06T14:24:50.000Z</time>
      </trkpt>
      <trkpt lat="-22.633316" lon="-47.028743">
        <ele>605.761438</ele>
        <time>2025-12-06T14:24:50.000Z</time>
      </trkpt>
      <trkpt lat="-22.63348" lon="-47.02896">
        <ele>605.732269</ele>
        <time>2025-12-06T14:24:53.000Z</time>
      </trkpt>
      <trkpt lat="-22.634272" lon="-47.030086">
        <ele>606.681348</ele>
        <time>2025-12-06T14:25:08.000Z</time>
      </trkpt>
      <trkpt lat="-22.634665" lon="-47.030754">
        <ele>607.664698</ele>
        <time>2025-12-06T14:25:16.000Z</time>
      </trkpt>
      <trkpt lat="-22.635092" lon="-47.031467">
        <ele>608.231778</ele>
        <time>2025-12-06T14:25:25.000Z</time>
      </trkpt>
      <trkpt lat="-22.635265" lon="-47.031841">
        <ele>608.362417</ele>
        <time>2025-12-06T14:25:29.000Z</time>
      </trkpt>
      <trkpt lat="-22.635548" lon="-47.032736">
        <ele>608.658284</ele>
        <time>2025-12-06T14:25:39.000Z</time>
      </trkpt>
      <trkpt lat="-22.635599" lon="-47.033427">
        <ele>608.25792</ele>
        <time>2025-12-06T14:25:46.000Z</time>
      </trkpt>
      <trkpt lat="-22.635707" lon="-47.033875">
        <ele>607.961498</ele>
        <time>2025-12-06T14:25:51.000Z</time>
      </trkpt>
      <trkpt lat="-22.635801" lon="-47.034143">
        <ele>607.770525</ele>
        <time>2025-12-06T14:25:54.000Z</time>
      </trkpt>
      <trkpt lat="-22.636816" lon="-47.036446">
        <ele>606.731065</ele>
        <time>2025-12-06T14:26:20.000Z</time>
      </trkpt>
      <trkpt lat="-22.637221" lon="-47.037104">
        <ele>606.759827</ele>
        <time>2025-12-06T14:26:28.000Z</time>
      </trkpt>
      <trkpt lat="-22.638165" lon="-47.038547">
        <ele>606.288045</ele>
        <time>2025-12-06T14:26:46.000Z</time>
      </trkpt>
      <trkpt lat="-22.638708" lon="-47.039197">
        <ele>605.558859</ele>
        <time>2025-12-06T14:26:55.000Z</time>
      </trkpt>
      <trkpt lat="-22.640465" lon="-47.042909">
        <ele>597.817538</ele>
        <time>2025-12-06T14:27:38.000Z</time>
      </trkpt>
      <trkpt lat="-22.641009" lon="-47.044032">
        <ele>596.46014</ele>
        <time>2025-12-06T14:27:51.000Z</time>
      </trkpt>
      <trkpt lat="-22.641236" lon="-47.04457">
        <ele>595.897265</ele>
        <time>2025-12-06T14:27:57.000Z</time>
      </trkpt>
      <trkpt lat="-22.64125" lon="-47.044696">
        <ele>595.765187</ele>
        <time>2025-12-06T14:27:58.000Z</time>
      </trkpt>
      <trkpt lat="-22.641207" lon="-47.044841">
        <ele>595.635744</ele>
        <time>2025-12-06T14:28:00.000Z</time>
      </trkpt>
      <trkpt lat="-22.639965" lon="-47.046042">
        <ele>594.546942</ele>
        <time>2025-12-06T14:28:19.000Z</time>
      </trkpt>
      <trkpt lat="-22.639817" lon="-47.04629">
        <ele>594.400691</ele>
        <time>2025-12-06T14:28:22.000Z</time>
      </trkpt>
      <trkpt lat="-22.639266" lon="-47.047409">
        <ele>593.794535</ele>
        <time>2025-12-06T14:28:35.000Z</time>
      </trkpt>
      <trkpt lat="-22.638727" lon="-47.048703">
        <ele>594.10583</ele>
        <time>2025-12-06T14:28:50.000Z</time>
      </trkpt>
      <trkpt lat="-22.638713" lon="-47.048729">
        <ele>594.122191</ele>
        <time>2025-12-06T14:28:50.000Z</time>
      </trkpt>
      <trkpt lat="-22.638598" lon="-47.049044">
        <ele>594.325315</ele>
        <time>2025-12-06T14:28:53.000Z</time>
      </trkpt>
      <trkpt lat="-22.638416" lon="-47.049641">
        <ele>594.679907</ele>
        <time>2025-12-06T14:28:59.000Z</time>
      </trkpt>
      <trkpt lat="-22.638454" lon="-47.049695">
        <ele>594.687111</ele>
        <time>2025-12-06T14:29:00.000Z</time>
      </trkpt>
      <trkpt lat="-22.63851" lon="-47.049714">
        <ele>594.670321</ele>
        <time>2025-12-06T14:29:01.000Z</time>
      </trkpt>
      <trkpt lat="-22.638562" lon="-47.049701">
        <ele>594.656865</ele>
        <time>2025-12-06T14:29:02.000Z</time>
      </trkpt>
      <trkpt lat="-22.638598" lon="-47.049669">
        <ele>594.642189</ele>
        <time>2025-12-06T14:29:03.000Z</time>
      </trkpt>
      <trkpt lat="-22.638688" lon="-47.049626">
        <ele>594.613862</ele>
        <time>2025-12-06T14:29:04.000Z</time>
      </trkpt>
      <trkpt lat="-22.638789" lon="-47.049494">
        <ele>594.567337</ele>
        <time>2025-12-06T14:29:06.000Z</time>
      </trkpt>
      <trkpt lat="-22.638909" lon="-47.049245">
        <ele>594.498563</ele>
        <time>2025-12-06T14:29:09.000Z</time>
      </trkpt>
      <trkpt lat="-22.638914" lon="-47.049173">
        <ele>594.479255</ele>
        <time>2025-12-06T14:29:10.000Z</time>
      </trkpt>
      <trkpt lat="-22.638922" lon="-47.049108">
        <ele>594.460991</ele>
        <time>2025-12-06T14:29:11.000Z</time>
      </trkpt>
      <trkpt lat="-22.63891" lon="-47.048741">
        <ele>594.368429</ele>
        <time>2025-12-06T14:29:15.000Z</time>
      </trkpt>
      <trkpt lat="-22.638934" lon="-47.048511">
        <ele>594.309165</ele>
        <time>2025-12-06T14:29:17.000Z</time>
      </trkpt>
      <trkpt lat="-22.639243" lon="-47.047748">
        <ele>594.140656</ele>
        <time>2025-12-06T14:29:26.000Z</time>
      </trkpt>
      <trkpt lat="-22.639529" lon="-47.047083">
        <ele>594.036435</ele>
        <time>2025-12-06T14:29:34.000Z</time>
      </trkpt>
      <trkpt lat="-22.6399" lon="-47.046339">
        <ele>593.934098</ele>
        <time>2025-12-06T14:29:43.000Z</time>
      </trkpt>
      <trkpt lat="-22.640035" lon="-47.046121">
        <ele>594.074583</ele>
        <time>2025-12-06T14:29:46.000Z</time>
      </trkpt>
      <trkpt lat="-22.640248" lon="-47.045934">
        <ele>594.231182</ele>
        <time>2025-12-06T14:29:49.000Z</time>
      </trkpt>
      <trkpt lat="-22.640478" lon="-47.0457">
        <ele>594.406486</ele>
        <time>2025-12-06T14:29:53.000Z</time>
      </trkpt>
      <trkpt lat="-22.641224" lon="-47.044986">
        <ele>594.996559</ele>
        <time>2025-12-06T14:30:04.000Z</time>
      </trkpt>
      <trkpt lat="-22.641281" lon="-47.044995">
        <ele>595.039124</ele>
        <time>2025-12-06T14:30:05.000Z</time>
      </trkpt>
      <trkpt lat="-22.641324" lon="-47.044992">
        <ele>595.093554</ele>
        <time>2025-12-06T14:30:05.000Z</time>
      </trkpt>
      <trkpt lat="-22.641352" lon="-47.044995">
        <ele>595.124442</ele>
        <time>2025-12-06T14:30:05.000Z</time>
      </trkpt>
      <trkpt lat="-22.641385" lon="-47.044967">
        <ele>595.175435</ele>
        <time>2025-12-06T14:30:05.000Z</time>
      </trkpt>
      <trkpt lat="-22.641454" lon="-47.044723">
        <ele>595.403947</ele>
        <time>2025-12-06T14:30:08.000Z</time>
      </trkpt>
      <trkpt lat="-22.641406" lon="-47.044681">
        <ele>595.461058</ele>
        <time>2025-12-06T14:30:09.000Z</time>
      </trkpt>
      <trkpt lat="-22.641313" lon="-47.044661">
        <ele>595.558072</ele>
        <time>2025-12-06T14:30:10.000Z</time>
      </trkpt>
      <trkpt lat="-22.641263" lon="-47.044699">
        <ele>595.633545</ele>
        <time>2025-12-06T14:30:11.000Z</time>
      </trkpt>
      <trkpt lat="-22.641237" lon="-47.044575">
        <ele>595.763857</ele>
        <time>2025-12-06T14:30:12.000Z</time>
      </trkpt>
      <trkpt lat="-22.641011" lon="-47.044022">
        <ele>596.319139</ele>
        <time>2025-12-06T14:30:18.000Z</time>
      </trkpt>
      <trkpt lat="-22.640464" lon="-47.042911">
        <ele>598.217601</ele>
        <time>2025-12-06T14:30:31.000Z</time>
      </trkpt>
      <trkpt lat="-22.638717" lon="-47.039202">
        <ele>605.447945</ele>
        <time>2025-12-06T14:31:14.000Z</time>
      </trkpt>
      <trkpt lat="-22.638161" lon="-47.038545">
        <ele>606.669481</ele>
        <time>2025-12-06T14:31:23.000Z</time>
      </trkpt>
      <trkpt lat="-22.637224" lon="-47.037104">
        <ele>606.691517</ele>
        <time>2025-12-06T14:31:41.000Z</time>
      </trkpt>
      <trkpt lat="-22.636818" lon="-47.03645">
        <ele>606.825329</ele>
        <time>2025-12-06T14:31:49.000Z</time>
      </trkpt>
      <trkpt lat="-22.635795" lon="-47.034145">
        <ele>607.830457</ele>
        <time>2025-12-06T14:32:15.000Z</time>
      </trkpt>
      <trkpt lat="-22.635698" lon="-47.033876">
        <ele>607.998675</ele>
        <time>2025-12-06T14:32:18.000Z</time>
      </trkpt>
      <trkpt lat="-22.635595" lon="-47.033441">
        <ele>608.259768</ele>
        <time>2025-12-06T14:32:23.000Z</time>
      </trkpt>
      <trkpt lat="-22.635553" lon="-47.032734">
        <ele>608.388395</ele>
        <time>2025-12-06T14:32:30.000Z</time>
      </trkpt>
      <trkpt lat="-22.635249" lon="-47.031849">
        <ele>608.556416</ele>
        <time>2025-12-06T14:32:40.000Z</time>
      </trkpt>
      <trkpt lat="-22.635096" lon="-47.03146">
        <ele>608.500055</ele>
        <time>2025-12-06T14:32:44.000Z</time>
      </trkpt>
      <trkpt lat="-22.63467" lon="-47.030746">
        <ele>607.534806</ele>
        <time>2025-12-06T14:32:53.000Z</time>
      </trkpt>
      <trkpt lat="-22.634281" lon="-47.030088">
        <ele>606.62638</ele>
        <time>2025-12-06T14:33:01.000Z</time>
      </trkpt>
      <trkpt lat="-22.633473" lon="-47.02896">
        <ele>605.803257</ele>
        <time>2025-12-06T14:33:16.000Z</time>
      </trkpt>
      <trkpt lat="-22.633323" lon="-47.028744">
        <ele>605.665989</ele>
        <time>2025-12-06T14:33:19.000Z</time>
      </trkpt>
      <trkpt lat="-22.633473" lon="-47.028966">
        <ele>605.528725</ele>
        <time>2025-12-06T14:33:22.000Z</time>
      </trkpt>
      <trkpt lat="-22.634271" lon="-47.030089">
        <ele>606.78015</ele>
        <time>2025-12-06T14:33:37.000Z</time>
      </trkpt>
      <trkpt lat="-22.634676" lon="-47.030759">
        <ele>607.616307</ele>
        <time>2025-12-06T14:33:45.000Z</time>
      </trkpt>
      <trkpt lat="-22.635104" lon="-47.031457">
        <ele>608.167669</ele>
        <time>2025-12-06T14:33:54.000Z</time>
      </trkpt>
      <trkpt lat="-22.635259" lon="-47.031852">
        <ele>608.439884</ele>
        <time>2025-12-06T14:33:58.000Z</time>
      </trkpt>
      <trkpt lat="-22.635544" lon="-47.032742">
        <ele>608.613448</ele>
        <time>2025-12-06T14:34:08.000Z</time>
      </trkpt>
      <trkpt lat="-22.635599" lon="-47.033441">
        <ele>608.179167</ele>
        <time>2025-12-06T14:34:15.000Z</time>
      </trkpt>
      <trkpt lat="-22.63571" lon="-47.033869">
        <ele>607.899149</ele>
        <time>2025-12-06T14:34:20.000Z</time>
      </trkpt>
      <trkpt lat="-22.635783" lon="-47.034138">
        <ele>607.718729</ele>
        <time>2025-12-06T14:34:23.000Z</time>
      </trkpt>
      <trkpt lat="-22.63681" lon="-47.03645">
        <ele>606.803156</ele>
        <time>2025-12-06T14:34:49.000Z</time>
      </trkpt>
      <trkpt lat="-22.637233" lon="-47.037087">
        <ele>606.792103</ele>
        <time>2025-12-06T14:34:57.000Z</time>
      </trkpt>
      <trkpt lat="-22.638164" lon="-47.038536">
        <ele>606.289625</ele>
        <time>2025-12-06T14:35:15.000Z</time>
      </trkpt>
      <trkpt lat="-22.638718" lon="-47.039205">
        <ele>605.865261</ele>
        <time>2025-12-06T14:35:24.000Z</time>
      </trkpt>
      <trkpt lat="-22.64045" lon="-47.042918">
        <ele>597.88087</ele>
        <time>2025-12-06T14:36:07.000Z</time>
      </trkpt>
      <trkpt lat="-22.641015" lon="-47.04403">
        <ele>596.432545</ele>
        <time>2025-12-06T14:36:20.000Z</time>
      </trkpt>
      <trkpt lat="-22.641236" lon="-47.044557">
        <ele>595.844845</ele>
        <time>2025-12-06T14:36:26.000Z</time>
      </trkpt>
      <trkpt lat="-22.641252" lon="-47.044694">
        <ele>595.760526</ele>
        <time>2025-12-06T14:36:27.000Z</time>
      </trkpt>
      <trkpt lat="-22.64122" lon="-47.044842">
        <ele>595.669627</ele>
        <time>2025-12-06T14:36:29.000Z</time>
      </trkpt>
      <trkpt lat="-22.639961" lon="-47.046059">
        <ele>594.541128</ele>
        <time>2025-12-06T14:36:48.000Z</time>
      </trkpt>
      <trkpt lat="-22.639826" lon="-47.046276">
        <ele>594.350359</ele>
        <time>2025-12-06T14:36:51.000Z</time>
      </trkpt>
      <trkpt lat="-22.639258" lon="-47.047417">
        <ele>593.481738</ele>
        <time>2025-12-06T14:37:04.000Z</time>
      </trkpt>
      <trkpt lat="-22.638763" lon="-47.048601">
        <ele>593.017328855</ele>
        <time>2025-12-06T14:37:17.000Z</time>
      </trkpt>
      <trkpt lat="-22.638775" lon="-47.048595">
        <ele>593.012212642</ele>
        <time>2025-12-06T14:37:17.000Z</time>
      </trkpt>
    </trkseg>
  </trk>
</gpx>

<!--
Performance optimized by W3 Total Cache. Learn more: https://www.boldgrid.com/w3-total-cache/?utm_source=w3tc&utm_medium=footer_comment&utm_campaign=free_plugin

Page Caching using Disk: Enhanced{w3tc_pagecache_reject_reason} 

Served from: www.aquabike.world @ 2026-05-10 13:35:13 by W3 Total Cache
-->